Sunday, October 22, 2017, 5:12 PM EDT
Back to Local

KUKT, Quakertown, Quakertown Airport

Location: Quakertown, PA, United States Lat: 40.435
Local Time: 5:12 PM EDT (21:12 GMT) Lon: -75.382
Time Zone: US/Eastern Elev: 524 ft

Show me the last for .
Show Decoded

2017-10-22 16:55 METAR KUKT 222055Z AUTO 18004KT 10SM CLR 22/07 A3035 RMK AO1 =
2017-10-22 16:35 METAR KUKT 222035Z AUTO 16005KT 10SM CLR 22/07 A3035 RMK AO1 =
2017-10-22 16:15 METAR KUKT 222015Z AUTO 21005KT 10SM CLR 23/07 A3036 RMK AO1 =
2017-10-22 15:55 METAR KUKT 221955Z AUTO 18007KT 10SM CLR 23/07 A3036 RMK AO1 =
2017-10-22 15:35 METAR KUKT 221935Z AUTO 16008KT 10SM CLR 23/07 A3035 RMK AO1 =
2017-10-22 15:15 METAR KUKT 221915Z AUTO 18006KT 10SM CLR 23/08 A3036 RMK AO1 =
2017-10-22 14:55 METAR KUKT 221855Z AUTO 20004KT 10SM CLR 23/08 A3036 RMK AO1 =
2017-10-22 14:35 METAR KUKT 221835Z AUTO 16005KT 10SM CLR 23/07 A3037 RMK AO1 =
2017-10-22 14:15 METAR KUKT 221815Z AUTO 16006KT 10SM CLR 23/08 A3037 RMK AO1 =
2017-10-22 13:55 METAR KUKT 221755Z AUTO 23006KT 10SM CLR 23/08 A3038 RMK AO1 =
2017-10-22 13:35 METAR KUKT 221735Z AUTO 22004KT 10SM CLR 23/07 A3038 RMK AO1 =
2017-10-22 13:15 METAR KUKT 221715Z AUTO 20006KT 10SM CLR 22/07 A3039 RMK AO1 =
2017-10-22 12:55 METAR KUKT 221655Z AUTO 18005KT 10SM CLR 22/08 A3040 RMK AO1 =
2017-10-22 12:35 METAR KUKT 221635Z AUTO 22005KT 10SM CLR 22/08 A3040 RMK AO1 =
2017-10-22 12:15 METAR KUKT 221615Z AUTO 18006KT 10SM CLR 22/08 A3041 RMK AO1 =
2017-10-22 11:55 METAR KUKT 221555Z AUTO 00000KT 10SM CLR 22/09 A3041 RMK AO1 =
2017-10-22 11:15 METAR KUKT 221515Z AUTO 20003KT 10SM CLR 20/09 A3041 RMK AO1 =
2017-10-22 10:55 METAR KUKT 221455Z AUTO 00000KT 10SM CLR 18/09 A3042 RMK AO1 =
2017-10-22 10:35 METAR KUKT 221435Z AUTO 00000KT 10SM CLR 16/10 A3042 RMK AO1 =
2017-10-22 10:15 METAR KUKT 221415Z AUTO 00000KT 10SM CLR 15/10 A3042 RMK AO1 =
2017-10-22 09:55 METAR KUKT 221355Z AUTO 00000KT 10SM CLR 14/09 A3042 RMK AO1 =
2017-10-22 09:35 METAR KUKT 221335Z AUTO 00000KT 10SM CLR 12/09 A3042 RMK AO1 =
2017-10-22 09:15 METAR KUKT 221315Z AUTO 00000KT 10SM CLR 10/08 A3043 RMK AO1 =
2017-10-22 08:55 METAR KUKT 221255Z AUTO 00000KT 10SM CLR 08/07 A3042 RMK AO1 =
2017-10-22 08:35 METAR KUKT 221235Z AUTO 00000KT 10SM CLR 07/05 A3043 RMK AO1 =
2017-10-22 08:15 METAR KUKT 221215Z AUTO 00000KT 10SM CLR 06/05 A3042 RMK AO1 =
2017-10-22 07:55 METAR KUKT 221155Z AUTO 00000KT 10SM CLR 05/04 A3042 RMK AO1 =
2017-10-22 07:35 METAR KUKT 221135Z AUTO 00000KT 10SM CLR 04/04 A3041 RMK AO1 =
2017-10-22 07:15 METAR KUKT 221115Z AUTO 00000KT 10SM CLR 04/04 A3040 RMK AO1 =
2017-10-22 06:55 METAR KUKT 221055Z AUTO 00000KT 10SM CLR 04/04 A3040 RMK AO1 =
2017-10-22 06:35 METAR KUKT 221035Z AUTO 00000KT 10SM CLR 04/04 A3040 RMK AO1 =
2017-10-22 06:15 METAR KUKT 221015Z AUTO 00000KT 10SM CLR 04/04 A3039 RMK AO1 =
2017-10-22 05:55 METAR KUKT 220955Z AUTO 00000KT 10SM CLR 05/04 A3039 RMK AO1 =
2017-10-22 05:35 METAR KUKT 220935Z AUTO 00000KT 10SM CLR 05/04 A3038 RMK AO1 =
2017-10-22 05:15 METAR KUKT 220915Z AUTO 00000KT 10SM CLR 05/05 A3038 RMK AO1 =
2017-10-22 04:55 METAR KUKT 220855Z AUTO 00000KT 10SM CLR 05/05 A3037 RMK AO1 =
2017-10-22 04:35 METAR KUKT 220835Z AUTO 00000KT 10SM CLR 05/05 A3037 RMK AO1 =
2017-10-22 04:15 METAR KUKT 220815Z AUTO 00000KT 10SM CLR 05/05 A3037 RMK AO1 =
2017-10-22 03:55 METAR KUKT 220755Z AUTO 00000KT 10SM CLR 05/05 A3037 RMK AO1 =
2017-10-22 03:35 METAR KUKT 220735Z AUTO 00000KT 10SM CLR 05/05 A3037 RMK AO1 =
2017-10-22 03:15 METAR KUKT 220715Z AUTO 00000KT 10SM CLR 05/05 A3038 RMK AO1 =
2017-10-22 02:55 METAR KUKT 220655Z AUTO 00000KT 10SM CLR 06/05 A3037 RMK AO1 =
2017-10-22 02:35 METAR KUKT 220635Z AUTO 00000KT 10SM CLR 06/05 A3037 RMK AO1 =
2017-10-22 02:15 METAR KUKT 220615Z AUTO 00000KT 10SM CLR 06/05 A3036 RMK AO1 =
2017-10-22 01:55 METAR KUKT 220555Z AUTO 00000KT 10SM CLR 06/06 A3037 RMK AO1 =
2017-10-22 01:35 METAR KUKT 220535Z AUTO 00000KT 10SM CLR 07/06 A3037 RMK AO1 =
2017-10-22 01:15 METAR KUKT 220515Z AUTO 00000KT 10SM CLR 07/06 A3037 RMK AO1 =
2017-10-22 00:55 METAR KUKT 220455Z AUTO 00000KT 10SM CLR 07/07 A3038 RMK AO1 =
2017-10-22 00:35 METAR KUKT 220435Z AUTO 00000KT 10SM CLR 07/07 A3038 RMK AO1 =
2017-10-22 00:15 METAR KUKT 220415Z AUTO 00000KT 10SM CLR 07/07 A3037 RMK AO1 =
2017-10-21 23:55 METAR KUKT 220355Z AUTO 00000KT 10SM CLR 08/07 A3038 RMK AO1 =
2017-10-21 23:35 METAR KUKT 220335Z AUTO 00000KT 10SM CLR 08/07 A3038 RMK AO1 =
2017-10-21 23:15 METAR KUKT 220315Z AUTO 00000KT 10SM CLR 08/08 A3038 RMK AO1 =
2017-10-21 22:55 METAR KUKT 220255Z AUTO 00000KT 10SM CLR 08/08 A3038 RMK AO1 =
2017-10-21 22:35 METAR KUKT 220235Z AUTO 00000KT 10SM CLR 09/08 A3038 RMK AO1 =
2017-10-21 22:15 METAR KUKT 220215Z AUTO 00000KT 10SM CLR 09/08 A3037 RMK AO1 =
2017-10-21 21:55 METAR KUKT 220155Z AUTO 00000KT 10SM CLR 10/08 A3038 RMK AO1 =
2017-10-21 21:35 METAR KUKT 220135Z AUTO 00000KT 10SM CLR 10/08 A3038 RMK AO1 =
2017-10-21 21:15 METAR KUKT 220115Z AUTO 00000KT 10SM CLR 10/08 A3038 RMK AO1 =
2017-10-21 20:55 METAR KUKT 220055Z AUTO 00000KT 10SM CLR 11/09 A3038 RMK AO1 =
2017-10-21 20:35 METAR KUKT 220035Z AUTO 00000KT 10SM CLR 11/08 A3037 RMK AO1 =
2017-10-21 20:15 METAR KUKT 220015Z AUTO 00000KT 10SM CLR 12/09 A3036 RMK AO1 =
2017-10-21 19:55 METAR KUKT 212355Z AUTO 00000KT 10SM CLR 12/08 A3036 RMK AO1 =
2017-10-21 19:35 METAR KUKT 212335Z AUTO 00000KT 10SM CLR 13/09 A3036 RMK AO1 =
2017-10-21 19:15 METAR KUKT 212315Z AUTO 00000KT 10SM CLR 13/09 A3036 RMK AO1 =
2017-10-21 18:55 METAR KUKT 212255Z AUTO 00000KT 10SM CLR 14/09 A3036 RMK AO1 =
2017-10-21 18:35 METAR KUKT 212235Z AUTO 00000KT 10SM CLR 15/10 A3035 RMK AO1 =
2017-10-21 18:15 METAR KUKT 212215Z AUTO 00000KT 10SM CLR 17/10 A3035 RMK AO1 =
2017-10-21 17:55 METAR KUKT 212155Z AUTO 00000KT 10SM CLR 19/10 A3035 RMK AO1 =
2017-10-21 17:35 METAR KUKT 212135Z AUTO 10SM CLR 20/10 A3034 RMK AO1 =
2017-10-21 17:15 METAR KUKT 212115Z AUTO 00000KT 10SM CLR 22/07 A3034 RMK AO1 =

Support USWX by starting your Amazon purchase here.